createdAt,value
2017-08-25T00:01:40.332Z,7.07
2017-08-25T00:04:15.560Z,8.23
2017-08-25T00:06:50.092Z,7.75
2017-08-25T00:09:24.449Z,8.30
2017-08-25T00:11:58.801Z,7.40
2017-08-25T00:14:33.230Z,7.78
2017-08-25T00:17:07.740Z,8.10
2017-08-25T00:19:42.084Z,6.97
2017-08-25T00:22:16.425Z,7.30
2017-08-25T00:24:50.912Z,7.85
2017-08-25T00:27:25.405Z,8.50
2017-08-25T00:29:59.857Z,7.55
2017-08-25T00:32:34.408Z,10.18
2017-08-25T00:35:08.788Z,9.48
2017-08-25T00:37:43.444Z,8.80
2017-08-25T00:40:17.849Z,8.63
2017-08-25T00:42:52.357Z,10.68
2017-08-25T00:45:26.777Z,8.70
2017-08-25T00:48:01.217Z,9.57
2017-08-25T00:50:35.561Z,8.95
2017-08-25T00:53:09.957Z,9.52
2017-08-25T00:55:44.473Z,11.18
2017-08-25T00:58:18.876Z,10.73
2017-08-25T01:00:53.411Z,11.43
2017-08-25T01:03:27.725Z,10.88
2017-08-25T01:06:02.166Z,10.55
2017-08-25T01:08:36.474Z,10.32
2017-08-25T01:11:10.849Z,11.07
2017-08-25T01:13:45.524Z,10.35
2017-08-25T01:16:19.821Z,10.93
2017-08-25T01:18:54.382Z,9.95
2017-08-25T01:21:28.740Z,11.65
2017-08-25T01:24:03.404Z,11.52
2017-08-25T01:26:37.792Z,9.43
2017-08-25T01:29:12.386Z,10.00
2017-08-25T01:31:46.832Z,9.63
2017-08-25T01:34:21.280Z,10.00
2017-08-25T01:36:56.636Z,9.65
2017-08-25T01:39:31.036Z,10.55
2017-08-25T01:42:05.549Z,10.80
2017-08-25T01:44:39.964Z,9.93
2017-08-25T01:47:14.763Z,9.73
2017-08-25T01:49:49.651Z,10.00
2017-08-25T01:52:24.137Z,11.50
2017-08-25T01:54:58.808Z,12.25
2017-08-25T01:57:33.305Z,11.90
2017-08-25T02:00:07.856Z,11.12
2017-08-25T02:02:42.340Z,12.20
2017-08-25T02:05:16.728Z,14.35
2017-08-25T02:07:51.204Z,12.32
2017-08-25T02:10:25.509Z,14.27
2017-08-25T02:13:00.736Z,13.50
2017-08-25T02:15:35.168Z,15.30
2017-08-25T02:18:09.548Z,14.95
2017-08-25T02:20:44.820Z,15.05
2017-08-25T02:23:19.094Z,15.43
2017-08-25T02:25:53.428Z,18.60
2017-08-25T02:28:27.768Z,17.98
2017-08-25T02:31:02.082Z,18.45
2017-08-25T02:33:36.378Z,19.55
2017-08-25T02:36:10.832Z,20.10
2017-08-25T02:38:46.384Z,19.30
2017-08-25T02:41:20.768Z,19.27
2017-08-25T02:43:55.252Z,21.48
2017-08-25T02:46:29.596Z,20.50
2017-08-25T02:49:04.094Z,22.33
2017-08-25T02:51:38.413Z,22.70
2017-08-25T02:54:12.756Z,22.85
2017-08-25T02:56:47.317Z,21.05
2017-08-25T02:59:22.536Z,23.67
2017-08-25T03:01:57.088Z,22.20
2017-08-25T03:04:31.474Z,21.15
2017-08-25T03:07:05.979Z,22.65
2017-08-25T03:09:40.543Z,22.20
2017-08-25T03:12:14.837Z,24.58
2017-08-25T03:14:49.471Z,22.00
2017-08-25T03:17:23.904Z,23.40
2017-08-25T03:19:58.417Z,23.10
2017-08-25T03:22:32.720Z,22.25
2017-08-25T03:25:07.267Z,22.25
2017-08-25T03:27:41.768Z,20.35
2017-08-25T03:30:16.129Z,20.77
2017-08-25T03:32:50.684Z,21.15
2017-08-25T03:35:25.192Z,20.65
2017-08-25T03:37:59.716Z,20.90
2017-08-25T03:40:34.061Z,19.35
2017-08-25T03:43:09.646Z,19.17
2017-08-25T03:45:44.877Z,18.77
2017-08-25T03:48:20.825Z,19.00
2017-08-25T03:50:55.204Z,18.70
2017-08-25T03:53:29.752Z,19.80
2017-08-25T03:56:04.197Z,18.23
2017-08-25T03:58:38.686Z,17.08
2017-08-25T04:01:13.320Z,17.25
2017-08-25T04:03:47.647Z,17.70
2017-08-25T04:06:22.031Z,15.80
2017-08-25T04:08:56.384Z,16.05
2017-08-25T04:11:30.775Z,15.48
2017-08-25T04:14:05.317Z,14.85
2017-08-25T04:16:40.044Z,15.55
2017-08-25T04:19:14.535Z,16.52
2017-08-25T04:21:49.058Z,17.08
2017-08-25T04:24:23.383Z,15.40
2017-08-25T04:26:57.936Z,15.70
2017-08-25T04:29:32.273Z,16.60
2017-08-25T04:32:06.620Z,14.55
2017-08-25T04:34:41.007Z,15.35
2017-08-25T04:37:15.494Z,18.17
2017-08-25T04:39:49.836Z,15.18
2017-08-25T04:42:24.258Z,15.73
2017-08-25T04:44:59.635Z,16.15
2017-08-25T04:47:34.412Z,15.55
2017-08-25T04:50:08.965Z,15.60
2017-08-25T04:52:43.509Z,16.55
2017-08-25T04:55:18.205Z,15.57
2017-08-25T04:57:52.684Z,15.68
2017-08-25T05:00:27.132Z,16.98
2017-08-25T05:03:01.487Z,15.27
2017-08-25T05:05:35.941Z,17.73
2017-08-25T05:08:10.584Z,13.65
2017-08-25T05:10:44.900Z,15.38
2017-08-25T05:13:20.128Z,15.98
2017-08-25T05:15:54.660Z,16.08
2017-08-25T05:18:29.081Z,14.85
2017-08-25T05:21:03.504Z,17.15
2017-08-25T05:23:37.979Z,16.60
2017-08-25T05:26:12.557Z,17.05
2017-08-25T05:28:46.928Z,16.37
2017-08-25T05:31:21.380Z,18.10
2017-08-25T05:33:55.816Z,15.70
2017-08-25T05:36:30.347Z,17.50
2017-08-25T05:39:04.792Z,16.87
2017-08-25T05:41:39.478Z,17.95
2017-08-25T05:44:13.873Z,16.62
2017-08-25T05:46:48.160Z,17.92
2017-08-25T05:49:22.636Z,15.90
2017-08-25T05:51:56.904Z,16.10
2017-08-25T05:54:31.364Z,16.67
2017-08-25T05:57:05.841Z,15.50
2017-08-25T05:59:40.410Z,17.52
2017-08-25T06:02:14.888Z,16.05
2017-08-25T06:04:49.581Z,15.70
2017-08-25T06:07:24.265Z,14.82
2017-08-25T06:09:58.681Z,17.02
2017-08-25T06:12:33.196Z,16.58
2017-08-25T06:15:07.748Z,15.40
2017-08-25T06:17:42.952Z,17.42
2017-08-25T06:20:17.645Z,17.30
2017-08-25T06:22:52.072Z,14.73
2017-08-25T06:25:26.505Z,13.50
2017-08-25T06:28:01.068Z,15.13
2017-08-25T06:30:35.653Z,15.13
2017-08-25T06:33:10.100Z,14.95
2017-08-25T06:35:44.412Z,14.85
2017-08-25T06:38:18.806Z,14.25
2017-08-25T06:40:53.152Z,12.90
2017-08-25T06:43:27.605Z,12.70
2017-08-25T06:46:02.000Z,13.88
2017-08-25T06:48:36.370Z,12.93
2017-08-25T06:51:10.897Z,11.90
2017-08-25T06:53:45.196Z,11.52
2017-08-25T06:56:20.305Z,10.48
2017-08-25T06:58:55.400Z,11.85
2017-08-25T07:01:29.916Z,11.77
2017-08-25T07:04:04.455Z,11.68
2017-08-25T07:06:38.960Z,9.60
2017-08-25T07:09:13.392Z,9.00
2017-08-25T07:11:47.864Z,10.02
2017-08-25T07:14:22.257Z,9.15
2017-08-25T07:16:56.564Z,9.23
2017-08-25T07:19:31.072Z,9.73
2017-08-25T07:22:05.492Z,10.05
2017-08-25T07:24:40.060Z,9.30
2017-08-25T07:27:15.215Z,8.80
2017-08-25T07:29:49.653Z,8.27
2017-08-25T07:32:24.221Z,7.85
2017-08-25T07:34:58.621Z,8.13
2017-08-25T07:37:33.056Z,7.53
2017-08-25T07:40:07.697Z,7.68
2017-08-25T07:42:42.060Z,5.90
2017-08-25T07:45:16.461Z,5.35
2017-08-25T07:47:50.733Z,4.35
2017-08-25T07:50:25.299Z,5.03
2017-08-25T07:52:59.724Z,4.22
2017-08-25T07:55:34.248Z,4.95
2017-08-25T07:58:10.709Z,3.70
2017-08-25T08:00:45.202Z,3.15
2017-08-25T08:03:19.788Z,3.40
2017-08-25T08:05:54.316Z,4.22
2017-08-25T08:08:28.637Z,3.35
2017-08-25T08:11:02.960Z,2.12
2017-08-25T08:13:37.344Z,2.80
2017-08-25T08:16:11.858Z,3.10
2017-08-25T08:18:46.481Z,2.62
2017-08-25T08:21:21.033Z,2.50
2017-08-25T08:23:55.477Z,2.58
2017-08-25T08:26:30.247Z,2.60
2017-08-25T08:29:04.565Z,2.45
2017-08-25T08:31:38.907Z,2.33
2017-08-25T08:34:13.353Z,2.65
2017-08-25T08:36:47.955Z,2.50
2017-08-25T08:39:22.245Z,2.50
2017-08-25T08:41:59.531Z,2.70
2017-08-25T08:44:33.848Z,2.40
2017-08-25T08:47:08.281Z,2.00
2017-08-25T08:49:42.651Z,2.70
2017-08-25T08:52:17.154Z,2.30
2017-08-25T08:54:51.521Z,2.95
2017-08-25T08:57:25.920Z,2.30
2017-08-25T09:00:00.327Z,2.90
2017-08-25T09:02:34.867Z,2.08
2017-08-25T09:05:09.440Z,2.45
2017-08-25T09:07:43.796Z,2.55
2017-08-25T09:10:18.281Z,2.75
2017-08-25T09:12:54.816Z,2.08
2017-08-25T09:15:29.243Z,2.30
2017-08-25T09:18:03.881Z,2.75
2017-08-25T09:20:38.404Z,2.30
2017-08-25T09:23:13.032Z,2.22
2017-08-25T09:25:47.424Z,2.10
2017-08-25T09:28:21.983Z,2.60
2017-08-25T09:30:56.312Z,2.40
2017-08-25T09:33:30.714Z,2.62
2017-08-25T09:36:05.198Z,2.10
2017-08-25T09:38:39.756Z,2.53
2017-08-25T09:41:14.093Z,3.10
2017-08-25T09:43:48.502Z,3.20
2017-08-25T09:46:22.953Z,3.30
2017-08-25T09:48:57.956Z,3.13
2017-08-25T09:51:32.310Z,3.40
2017-08-25T09:54:06.691Z,3.23
2017-08-25T09:56:41.509Z,3.83
2017-08-25T09:59:16.007Z,4.17
2017-08-25T10:01:50.453Z,3.70
2017-08-25T10:04:25.926Z,4.10
2017-08-25T10:07:03.417Z,4.00
2017-08-25T10:09:40.964Z,3.90
2017-08-25T10:12:15.865Z,3.70
2017-08-25T10:14:50.221Z,3.43
2017-08-25T10:17:24.671Z,2.90
2017-08-25T10:19:59.059Z,3.10
2017-08-25T10:22:33.627Z,3.67
2017-08-25T10:25:08.254Z,3.47
2017-08-25T10:27:42.729Z,3.12
2017-08-25T10:30:17.108Z,3.30
2017-08-25T10:32:52.409Z,3.13
2017-08-25T10:35:38.789Z,2.90
2017-08-25T10:38:25.245Z,2.67
2017-08-25T10:41:13.952Z,2.73
2017-08-25T10:44:01.633Z,2.50
2017-08-25T10:46:36.155Z,3.10
2017-08-25T10:49:10.692Z,2.30
2017-08-25T10:51:45.217Z,2.40
2017-08-25T10:54:20.456Z,1.93
2017-08-25T10:56:54.944Z,2.10
2017-08-25T10:59:29.305Z,1.83
2017-08-25T11:02:03.660Z,1.80
2017-08-25T11:04:38.749Z,1.80
2017-08-25T11:07:13.361Z,1.30
2017-08-25T11:09:47.698Z,1.67
2017-08-25T11:12:22.280Z,1.33
2017-08-25T11:14:56.752Z,1.33
2017-08-25T11:17:31.084Z,1.40
2017-08-25T11:20:05.542Z,1.70
2017-08-25T11:22:40.001Z,1.37
2017-08-25T11:25:14.531Z,1.07
2017-08-25T11:27:49.033Z,1.33
2017-08-25T11:30:23.370Z,0.80
2017-08-25T11:32:57.737Z,1.67
2017-08-25T11:35:32.068Z,1.20
2017-08-25T11:38:06.456Z,1.43
2017-08-25T11:40:40.797Z,1.07
2017-08-25T11:43:15.389Z,0.80
2017-08-25T11:45:49.793Z,1.20
2017-08-25T11:48:24.168Z,1.13
2017-08-25T11:50:58.673Z,1.47
2017-08-25T11:53:33.137Z,4.63
2017-08-25T11:56:07.556Z,1.17
2017-08-25T11:58:42.020Z,1.53
2017-08-25T12:01:16.480Z,1.00
2017-08-25T12:03:51.743Z,1.50
2017-08-25T12:06:26.392Z,1.63
2017-08-25T12:09:00.780Z,1.27
2017-08-25T12:11:35.264Z,1.77
2017-08-25T12:14:09.709Z,1.57
2017-08-25T12:16:44.233Z,1.60
2017-08-25T12:19:18.940Z,1.63
2017-08-25T12:21:53.509Z,1.40
2017-08-25T12:24:28.018Z,1.50
2017-08-25T12:27:02.568Z,1.20
2017-08-25T12:29:36.978Z,1.37
2017-08-25T12:32:11.322Z,1.80
2017-08-25T12:34:45.804Z,1.10
2017-08-25T12:37:20.358Z,1.30
2017-08-25T12:39:54.877Z,0.80
2017-08-25T12:42:29.249Z,1.10
2017-08-25T12:45:03.642Z,1.20
2017-08-25T12:47:38.017Z,1.27
2017-08-25T12:50:12.545Z,1.00
2017-08-25T12:52:46.833Z,1.20
2017-08-25T12:55:21.154Z,2.40
2017-08-25T12:57:55.497Z,1.03
2017-08-25T13:00:30.073Z,1.10
2017-08-25T13:03:04.688Z,0.90
2017-08-25T13:05:39.264Z,1.07
2017-08-25T13:08:13.632Z,1.30
2017-08-25T13:10:47.956Z,1.33
2017-08-25T13:13:22.505Z,1.30
2017-08-25T13:15:57.033Z,1.20
2017-08-25T13:18:31.488Z,1.53
2017-08-25T13:21:05.954Z,1.20
2017-08-25T13:23:40.709Z,1.30
2017-08-25T13:26:16.078Z,1.67
2017-08-25T13:28:50.646Z,1.13
2017-08-25T13:31:26.125Z,1.00
2017-08-25T13:34:00.484Z,1.10
2017-08-25T13:36:34.785Z,1.50
2017-08-25T13:39:09.113Z,1.40
2017-08-25T13:41:43.432Z,1.27
2017-08-25T13:44:17.764Z,1.40
2017-08-25T13:46:52.815Z,1.30
2017-08-25T13:49:27.117Z,1.40
2017-08-25T13:52:01.540Z,1.40
2017-08-25T13:54:36.036Z,1.40
2017-08-25T13:57:10.562Z,1.40
2017-08-25T13:59:45.265Z,1.40
2017-08-25T14:02:19.652Z,1.23
2017-08-25T14:04:54.385Z,1.13
2017-08-25T14:07:29.729Z,1.00
2017-08-25T14:10:04.106Z,2.17
2017-08-25T14:12:38.552Z,1.60
2017-08-25T14:15:12.990Z,1.80
2017-08-25T14:17:47.340Z,1.73
2017-08-25T14:20:21.744Z,1.40
2017-08-25T14:22:56.128Z,1.57
2017-08-25T14:25:30.508Z,2.33
2017-08-25T14:28:05.155Z,1.50
2017-08-25T14:30:39.664Z,1.87
2017-08-25T14:33:13.997Z,1.23
2017-08-25T14:35:48.552Z,1.27
2017-08-25T14:38:23.057Z,1.50
2017-08-25T14:40:57.401Z,1.40
2017-08-25T14:43:31.725Z,1.20
2017-08-25T14:46:06.191Z,1.27
2017-08-25T14:48:40.659Z,2.50
2017-08-25T14:51:15.153Z,1.30
2017-08-25T14:53:49.532Z,1.57
2017-08-25T14:56:23.972Z,1.13
2017-08-25T14:58:58.332Z,1.10
2017-08-25T15:01:32.632Z,1.13
2017-08-25T15:04:07.372Z,1.17
2017-08-25T15:06:41.680Z,1.30
2017-08-25T15:09:15.961Z,1.50
2017-08-25T15:11:50.277Z,1.30
2017-08-25T15:14:24.841Z,1.03
2017-08-25T15:16:59.298Z,1.30
2017-08-25T15:19:33.726Z,1.20
2017-08-25T15:22:08.518Z,1.70
2017-08-25T15:24:43.674Z,1.60
2017-08-25T15:27:18.156Z,1.40
2017-08-25T15:29:52.545Z,1.50
2017-08-25T15:32:27.042Z,1.57
2017-08-25T15:35:01.719Z,1.20
2017-08-25T15:37:36.192Z,1.20
2017-08-25T15:40:10.508Z,1.50
2017-08-25T15:42:45.182Z,1.20
2017-08-25T15:45:19.617Z,1.60
2017-08-25T15:47:53.983Z,1.33
2017-08-25T15:50:28.456Z,1.37
2017-08-25T15:53:03.166Z,1.57
2017-08-25T15:55:37.496Z,1.30
2017-08-25T15:58:11.865Z,1.80
2017-08-25T16:00:46.180Z,1.50
2017-08-25T16:03:20.723Z,1.67
2017-08-25T16:05:55.120Z,1.43
2017-08-25T16:08:29.544Z,1.00
2017-08-25T16:11:04.098Z,1.13
2017-08-25T16:13:38.456Z,1.07
2017-08-25T16:16:12.925Z,1.30
2017-08-25T16:18:47.373Z,1.47
2017-08-25T16:21:21.808Z,1.40
2017-08-25T16:23:56.340Z,2.30
2017-08-25T16:26:30.663Z,2.30
2017-08-25T16:29:05.106Z,1.70
2017-08-25T16:31:39.786Z,1.40
2017-08-25T16:34:15.028Z,1.30
2017-08-25T16:36:49.547Z,1.40
2017-08-25T16:39:23.900Z,1.30
2017-08-25T16:41:58.449Z,1.40
2017-08-25T16:44:32.895Z,1.20
2017-08-25T16:47:07.517Z,1.83
2017-08-25T16:49:41.944Z,1.70
2017-08-25T16:52:16.392Z,1.67
2017-08-25T16:54:50.881Z,1.80
2017-08-25T16:57:25.445Z,2.00
2017-08-25T16:59:59.916Z,1.62
2017-08-25T17:02:34.388Z,1.27
2017-08-25T17:05:08.704Z,1.60
2017-08-25T17:07:43.236Z,2.27
2017-08-25T17:10:17.599Z,1.77
2017-08-25T17:12:51.997Z,1.80
2017-08-25T17:15:26.295Z,1.80
2017-08-25T17:18:00.756Z,2.03
2017-08-25T17:20:35.288Z,1.67
2017-08-25T17:23:09.811Z,1.75
2017-08-25T17:25:44.201Z,1.90
2017-08-25T17:28:18.657Z,1.90
2017-08-25T17:30:53.101Z,1.70
2017-08-25T17:33:27.472Z,1.90
2017-08-25T17:36:01.789Z,1.75
2017-08-25T17:38:39.178Z,1.80
2017-08-25T17:41:13.688Z,2.10
2017-08-25T17:43:48.359Z,2.00
2017-08-25T17:46:22.812Z,2.03
2017-08-25T17:48:57.435Z,1.90
2017-08-25T17:51:32.098Z,2.22
2017-08-25T17:54:07.350Z,1.90
2017-08-25T17:56:41.829Z,2.45
2017-08-25T17:59:16.316Z,2.65
2017-08-25T18:01:50.871Z,2.25
2017-08-25T18:04:25.881Z,2.10
2017-08-25T18:07:00.513Z,2.10
2017-08-25T18:09:35.282Z,2.87
2017-08-25T18:12:11.961Z,2.65
2017-08-25T18:14:46.330Z,2.85
2017-08-25T18:17:20.810Z,3.20
2017-08-25T18:19:55.428Z,3.60
2017-08-25T18:22:29.781Z,3.20
2017-08-25T18:25:04.453Z,3.40
2017-08-25T18:27:38.775Z,3.25
2017-08-25T18:30:13.334Z,3.40
2017-08-25T18:32:48.354Z,3.10
2017-08-25T18:35:22.877Z,3.30
2017-08-25T18:37:57.225Z,3.15
2017-08-25T18:40:31.739Z,3.58
2017-08-25T18:43:06.083Z,3.10
2017-08-25T18:45:40.592Z,3.33
2017-08-25T18:48:15.398Z,3.15
2017-08-25T18:50:49.697Z,2.90
2017-08-25T18:53:24.134Z,2.92
2017-08-25T18:55:58.563Z,2.70
2017-08-25T18:58:33.137Z,2.70
2017-08-25T19:01:07.524Z,2.80
2017-08-25T19:03:42.361Z,3.03
2017-08-25T19:06:16.768Z,2.95
2017-08-25T19:08:51.227Z,3.37
2017-08-25T19:11:25.617Z,3.25
2017-08-25T19:14:00.123Z,3.53
2017-08-25T19:16:34.517Z,3.78
2017-08-25T19:19:08.913Z,3.47
2017-08-25T19:21:43.385Z,3.60
2017-08-25T19:24:18.221Z,4.30
2017-08-25T19:26:52.535Z,3.97
2017-08-25T19:29:27.285Z,5.15
2017-08-25T19:32:01.804Z,4.18
2017-08-25T19:34:36.364Z,4.25
2017-08-25T19:37:10.832Z,3.72
2017-08-25T19:39:45.185Z,4.28
2017-08-25T19:42:19.702Z,4.55
2017-08-25T19:44:54.233Z,4.72
2017-08-25T19:47:28.725Z,4.70
2017-08-25T19:50:03.406Z,5.00
2017-08-25T19:52:37.752Z,4.43
2017-08-25T19:55:12.196Z,5.97
2017-08-25T19:57:46.724Z,5.55
2017-08-25T20:00:21.145Z,4.80
2017-08-25T20:02:55.534Z,4.93
2017-08-25T20:05:29.885Z,5.18
2017-08-25T20:08:04.369Z,5.45
2017-08-25T20:10:38.822Z,4.90
2017-08-25T20:13:13.428Z,5.30
2017-08-25T20:15:47.824Z,6.68
2017-08-25T20:18:22.413Z,5.30
2017-08-25T20:20:56.896Z,6.00
2017-08-25T20:23:31.365Z,6.53
2017-08-25T20:26:05.812Z,5.82
2017-08-25T20:28:40.417Z,4.90
2017-08-25T20:31:14.737Z,5.45
2017-08-25T20:33:49.216Z,6.05
2017-08-25T20:36:23.912Z,6.50
2017-08-25T20:38:58.237Z,6.22
2017-08-25T20:41:33.005Z,6.32
2017-08-25T20:44:07.324Z,6.45
2017-08-25T20:46:42.024Z,7.50
2017-08-25T20:49:16.485Z,6.65
2017-08-25T20:51:51.168Z,6.78
2017-08-25T20:54:25.484Z,6.40
2017-08-25T20:57:01.591Z,7.32
2017-08-25T20:59:36.108Z,7.45
2017-08-25T21:02:10.425Z,6.03
2017-08-25T21:04:45.110Z,5.80
2017-08-25T21:07:19.516Z,7.28
2017-08-25T21:09:54.007Z,6.28
2017-08-25T21:12:28.559Z,5.93
2017-08-25T21:15:03.036Z,5.62
2017-08-25T21:17:37.515Z,6.47
2017-08-25T21:20:11.920Z,6.72
2017-08-25T21:22:46.321Z,6.07
2017-08-25T21:25:20.849Z,6.28
2017-08-25T21:27:55.374Z,7.32
2017-08-25T21:30:29.892Z,6.43
2017-08-25T21:33:04.409Z,5.62
2017-08-25T21:35:38.778Z,6.07
2017-08-25T21:38:13.044Z,7.10
2017-08-25T21:40:47.626Z,6.50
2017-08-25T21:43:21.971Z,5.53
2017-08-25T21:45:56.326Z,6.70
2017-08-25T21:48:30.646Z,6.62
2017-08-25T21:51:05.173Z,6.72
2017-08-25T21:53:39.571Z,7.50
2017-08-25T21:56:13.889Z,6.47
2017-08-25T21:58:48.349Z,7.15
2017-08-25T22:01:22.857Z,7.25
2017-08-25T22:03:57.252Z,6.12
2017-08-25T22:06:31.601Z,6.93
2017-08-25T22:09:06.061Z,6.07
2017-08-25T22:11:40.801Z,6.30
2017-08-25T22:14:15.101Z,6.95
2017-08-25T22:16:49.449Z,6.55
2017-08-25T22:19:23.779Z,6.60
2017-08-25T22:21:58.333Z,6.75
2017-08-25T22:24:32.805Z,7.82
2017-08-25T22:27:07.187Z,6.40
2017-08-25T22:29:42.209Z,6.85
2017-08-25T22:32:16.632Z,6.60
2017-08-25T22:34:51.092Z,7.05
2017-08-25T22:40:16.649Z,8.20
2017-08-25T22:42:51.260Z,7.07
2017-08-25T22:45:25.697Z,6.82
2017-08-25T22:48:00.040Z,6.80
2017-08-25T22:50:35.293Z,6.25
2017-08-25T22:53:09.761Z,5.78
2017-08-25T22:55:44.385Z,6.25
2017-08-25T22:58:18.810Z,5.80
2017-08-25T23:00:53.148Z,6.65
2017-08-25T23:03:27.569Z,7.68
2017-08-25T23:06:01.931Z,7.03
2017-08-25T23:08:36.449Z,6.85
2017-08-25T23:11:10.852Z,11.68
2017-08-25T23:13:45.177Z,18.95
2017-08-25T23:16:20.280Z,9.65
2017-08-25T23:18:54.612Z,7.85
2017-08-25T23:21:29.084Z,8.45
2017-08-25T23:24:03.624Z,7.05
2017-08-25T23:26:38.114Z,7.37
2017-08-25T23:29:12.433Z,7.05
2017-08-25T23:31:47.280Z,7.43
2017-08-25T23:34:21.630Z,7.53
2017-08-25T23:36:56.120Z,7.70
2017-08-25T23:39:30.533Z,7.40
2017-08-25T23:42:04.951Z,8.05
2017-08-25T23:44:39.218Z,8.50
2017-08-25T23:47:13.894Z,7.93
2017-08-25T23:49:48.220Z,7.32
2017-08-25T23:52:23.321Z,7.30
2017-08-25T23:54:57.710Z,8.10
2017-08-25T23:57:32.291Z,9.80
